sensor_id;sensor_type;location;lat;lon;timestamp;temperature;humidity
14531;DHT22;7352;50.866;4.366;2023-02-21T00:00:05;9.70;99.90
14531;DHT22;7352;50.866;4.366;2023-02-21T00:02:49;9.70;99.90
14531;DHT22;7352;50.866;4.366;2023-02-21T00:06:08;9.70;99.90
14531;DHT22;7352;50.866;4.366;2023-02-21T00:08:54;9.60;99.90
14531;DHT22;7352;50.866;4.366;2023-02-21T00:11:43;9.50;99.90
14531;DHT22;7352;50.866;4.366;2023-02-21T00:14:28;9.40;99.90
14531;DHT22;7352;50.866;4.366;2023-02-21T00:17:16;9.50;99.90
14531;DHT22;7352;50.866;4.366;2023-02-21T00:20:02;9.40;99.90
14531;DHT22;7352;50.866;4.366;2023-02-21T00:22:47;9.30;99.90
14531;DHT22;7352;50.866;4.366;2023-02-21T00:25:32;9.20;99.90
14531;DHT22;7352;50.866;4.366;2023-02-21T00:28:16;9.20;99.90
14531;DHT22;7352;50.866;4.366;2023-02-21T00:31:24;9.20;99.90
14531;DHT22;7352;50.866;4.366;2023-02-21T00:34:20;9.20;99.90
14531;DHT22;7352;50.866;4.366;2023-02-21T00:37:05;9.10;99.90
14531;DHT22;7352;50.866;4.366;2023-02-21T00:40:20;9.10;99.90
14531;DHT22;7352;50.866;4.366;2023-02-21T00:43:12;9.10;99.90
14531;DHT22;7352;50.866;4.366;2023-02-21T00:46:04;9.20;99.90
14531;DHT22;7352;50.866;4.366;2023-02-21T00:51:54;8.90;99.90
14531;DHT22;7352;50.866;4.366;2023-02-21T00:54:39;8.90;99.90
14531;DHT22;7352;50.866;4.366;2023-02-21T00:57:27;9.00;99.90
14531;DHT22;7352;50.866;4.366;2023-02-21T01:00:17;9.00;99.90
14531;DHT22;7352;50.866;4.366;2023-02-21T01:03:05;9.10;99.90
14531;DHT22;7352;50.866;4.366;2023-02-21T01:05:53;9.10;99.90
14531;DHT22;7352;50.866;4.366;2023-02-21T01:08:42;9.20;99.90
14531;DHT22;7352;50.866;4.366;2023-02-21T01:11:28;9.20;99.90
14531;DHT22;7352;50.866;4.366;2023-02-21T01:14:13;9.30;99.90
14531;DHT22;7352;50.866;4.366;2023-02-21T01:16:58;9.30;99.90
14531;DHT22;7352;50.866;4.366;2023-02-21T01:19:43;9.50;99.90
14531;DHT22;7352;50.866;4.366;2023-02-21T01:22:33;9.40;99.90
14531;DHT22;7352;50.866;4.366;2023-02-21T01:25:21;9.30;99.90
14531;DHT22;7352;50.866;4.366;2023-02-21T01:28:06;9.40;99.90
14531;DHT22;7352;50.866;4.366;2023-02-21T01:30:53;9.30;99.90
14531;DHT22;7352;50.866;4.366;2023-02-21T01:33:40;9.30;99.90
14531;DHT22;7352;50.866;4.366;2023-02-21T01:36:27;9.20;99.90
14531;DHT22;7352;50.866;4.366;2023-02-21T01:39:12;9.10;99.90
14531;DHT22;7352;50.866;4.366;2023-02-21T01:41:58;9.00;99.90
14531;DHT22;7352;50.866;4.366;2023-02-21T01:44:47;9.00;99.90
14531;DHT22;7352;50.866;4.366;2023-02-21T01:47:37;9.10;99.90
14531;DHT22;7352;50.866;4.366;2023-02-21T01:50:26;9.20;99.90
14531;DHT22;7352;50.866;4.366;2023-02-21T01:53:14;9.20;99.90
14531;DHT22;7352;50.866;4.366;2023-02-21T01:56:01;9.20;99.90
14531;DHT22;7352;50.866;4.366;2023-02-21T01:58:48;9.30;99.90
14531;DHT22;7352;50.866;4.366;2023-02-21T02:01:41;9.40;99.90
14531;DHT22;7352;50.866;4.366;2023-02-21T02:04:31;9.50;99.90
14531;DHT22;7352;50.866;4.366;2023-02-21T02:07:18;9.50;99.90
14531;DHT22;7352;50.866;4.366;2023-02-21T02:10:04;9.40;99.90
14531;DHT22;7352;50.866;4.366;2023-02-21T02:15:54;9.30;99.90
14531;DHT22;7352;50.866;4.366;2023-02-21T02:24:57;9.30;99.90
14531;DHT22;7352;50.866;4.366;2023-02-21T02:27:46;9.30;99.90
14531;DHT22;7352;50.866;4.366;2023-02-21T02:30:39;9.40;99.90
14531;DHT22;7352;50.866;4.366;2023-02-21T02:36:14;9.30;99.90
14531;DHT22;7352;50.866;4.366;2023-02-21T02:38:56;9.40;99.90
14531;DHT22;7352;50.866;4.366;2023-02-21T02:41:34;9.20;99.90
14531;DHT22;7352;50.866;4.366;2023-02-21T02:44:08;9.10;99.90
14531;DHT22;7352;50.866;4.366;2023-02-21T02:46:40;9.10;99.90
14531;DHT22;7352;50.866;4.366;2023-02-21T02:49:17;9.30;99.90
14531;DHT22;7352;50.866;4.366;2023-02-21T02:51:47;9.40;99.90
14531;DHT22;7352;50.866;4.366;2023-02-21T02:54:14;9.40;99.90
14531;DHT22;7352;50.866;4.366;2023-02-21T02:56:47;9.50;99.90
14531;DHT22;7352;50.866;4.366;2023-02-21T02:59:17;9.40;99.90
14531;DHT22;7352;50.866;4.366;2023-02-21T03:02:15;9.30;99.90
14531;DHT22;7352;50.866;4.366;2023-02-21T03:05:02;9.30;99.90
14531;DHT22;7352;50.866;4.366;2023-02-21T03:07:46;9.60;99.90
14531;DHT22;7352;50.866;4.366;2023-02-21T03:10:31;9.50;99.90
14531;DHT22;7352;50.866;4.366;2023-02-21T03:13:18;9.50;99.90
14531;DHT22;7352;50.866;4.366;2023-02-21T03:15:53;9.50;99.90
14531;DHT22;7352;50.866;4.366;2023-02-21T03:18:26;9.60;99.90
14531;DHT22;7352;50.866;4.366;2023-02-21T03:20:57;9.60;99.90
14531;DHT22;7352;50.866;4.366;2023-02-21T03:23:34;9.60;99.90
14531;DHT22;7352;50.866;4.366;2023-02-21T03:26:05;9.60;99.90
14531;DHT22;7352;50.866;4.366;2023-02-21T03:28:35;9.40;99.90
14531;DHT22;7352;50.866;4.366;2023-02-21T03:31:04;9.50;99.90
14531;DHT22;7352;50.866;4.366;2023-02-21T03:33:33;9.50;99.90
14531;DHT22;7352;50.866;4.366;2023-02-21T03:36:03;9.50;99.90
14531;DHT22;7352;50.866;4.366;2023-02-21T03:38:32;9.50;99.90
14531;DHT22;7352;50.866;4.366;2023-02-21T03:40:59;9.40;99.90
14531;DHT22;7352;50.866;4.366;2023-02-21T03:43:27;9.20;99.90
14531;DHT22;7352;50.866;4.366;2023-02-21T03:45:53;9.10;99.90
14531;DHT22;7352;50.866;4.366;2023-02-21T03:48:20;9.10;99.90
14531;DHT22;7352;50.866;4.366;2023-02-21T03:50:48;9.20;99.90
14531;DHT22;7352;50.866;4.366;2023-02-21T03:53:15;9.30;99.90
14531;DHT22;7352;50.866;4.366;2023-02-21T03:55:44;9.30;99.90
14531;DHT22;7352;50.866;4.366;2023-02-21T03:58:10;9.30;99.90
14531;DHT22;7352;50.866;4.366;2023-02-21T04:00:37;9.40;99.90
14531;DHT22;7352;50.866;4.366;2023-02-21T04:03:04;9.40;99.90
14531;DHT22;7352;50.866;4.366;2023-02-21T04:05:31;9.30;99.90
14531;DHT22;7352;50.866;4.366;2023-02-21T04:07:58;9.30;99.90
14531;DHT22;7352;50.866;4.366;2023-02-21T04:10:25;9.20;99.90
14531;DHT22;7352;50.866;4.366;2023-02-21T04:12:54;9.20;99.90
14531;DHT22;7352;50.866;4.366;2023-02-21T04:15:21;9.30;99.90
14531;DHT22;7352;50.866;4.366;2023-02-21T04:17:48;9.30;99.90
14531;DHT22;7352;50.866;4.366;2023-02-21T04:20:15;9.30;99.90
14531;DHT22;7352;50.866;4.366;2023-02-21T04:22:42;9.20;99.90
14531;DHT22;7352;50.866;4.366;2023-02-21T04:25:09;9.20;99.90
14531;DHT22;7352;50.866;4.366;2023-02-21T04:27:39;9.30;99.90
14531;DHT22;7352;50.866;4.366;2023-02-21T04:30:11;9.30;99.90
14531;DHT22;7352;50.866;4.366;2023-02-21T04:32:38;9.20;99.90
14531;DHT22;7352;50.866;4.366;2023-02-21T04:35:05;9.10;99.90
14531;DHT22;7352;50.866;4.366;2023-02-21T04:37:32;9.10;99.90
14531;DHT22;7352;50.866;4.366;2023-02-21T04:39:59;9.10;99.90
14531;DHT22;7352;50.866;4.366;2023-02-21T04:42:26;9.20;99.90
14531;DHT22;7352;50.866;4.366;2023-02-21T04:44:54;9.30;99.90
14531;DHT22;7352;50.866;4.366;2023-02-21T04:47:22;9.30;99.90
14531;DHT22;7352;50.866;4.366;2023-02-21T04:49:50;9.30;99.90
14531;DHT22;7352;50.866;4.366;2023-02-21T04:52:17;9.20;99.90
14531;DHT22;7352;50.866;4.366;2023-02-21T04:54:47;9.30;99.90
14531;DHT22;7352;50.866;4.366;2023-02-21T04:57:14;9.30;99.90
14531;DHT22;7352;50.866;4.366;2023-02-21T04:59:42;9.20;99.90
14531;DHT22;7352;50.866;4.366;2023-02-21T05:02:09;9.10;99.90
14531;DHT22;7352;50.866;4.366;2023-02-21T05:04:38;9.10;99.90
14531;DHT22;7352;50.866;4.366;2023-02-21T05:07:07;9.10;99.90
14531;DHT22;7352;50.866;4.366;2023-02-21T05:09:36;9.00;99.90
14531;DHT22;7352;50.866;4.366;2023-02-21T05:12:05;9.10;99.90
14531;DHT22;7352;50.866;4.366;2023-02-21T05:14:36;9.10;99.90
14531;DHT22;7352;50.866;4.366;2023-02-21T05:17:03;9.00;99.90
14531;DHT22;7352;50.866;4.366;2023-02-21T05:19:31;9.00;99.90
14531;DHT22;7352;50.866;4.366;2023-02-21T05:22:02;9.10;99.90
14531;DHT22;7352;50.866;4.366;2023-02-21T05:24:33;9.20;99.90
14531;DHT22;7352;50.866;4.366;2023-02-21T05:27:03;9.10;99.90
14531;DHT22;7352;50.866;4.366;2023-02-21T05:29:30;9.00;99.90
14531;DHT22;7352;50.866;4.366;2023-02-21T05:31:58;8.90;99.90
14531;DHT22;7352;50.866;4.366;2023-02-21T05:34:26;9.00;99.90
14531;DHT22;7352;50.866;4.366;2023-02-21T05:36:53;9.00;99.90
14531;DHT22;7352;50.866;4.366;2023-02-21T05:39:23;9.10;99.90
14531;DHT22;7352;50.866;4.366;2023-02-21T05:41:51;9.10;99.90
14531;DHT22;7352;50.866;4.366;2023-02-21T05:44:19;9.10;99.90
14531;DHT22;7352;50.866;4.366;2023-02-21T05:46:47;9.00;99.90
14531;DHT22;7352;50.866;4.366;2023-02-21T05:49:14;8.90;99.90
14531;DHT22;7352;50.866;4.366;2023-02-21T05:51:42;9.00;99.90
14531;DHT22;7352;50.866;4.366;2023-02-21T05:54:14;9.10;99.90
14531;DHT22;7352;50.866;4.366;2023-02-21T05:56:47;9.00;99.90
14531;DHT22;7352;50.866;4.366;2023-02-21T05:59:16;8.90;99.90
14531;DHT22;7352;50.866;4.366;2023-02-21T06:01:44;8.80;99.90
14531;DHT22;7352;50.866;4.366;2023-02-21T06:04:12;8.80;99.90
14531;DHT22;7352;50.866;4.366;2023-02-21T06:06:41;8.90;99.90
14531;DHT22;7352;50.866;4.366;2023-02-21T06:09:09;8.70;99.90
14531;DHT22;7352;50.866;4.366;2023-02-21T06:11:38;8.70;99.90
14531;DHT22;7352;50.866;4.366;2023-02-21T06:14:11;8.70;99.90
14531;DHT22;7352;50.866;4.366;2023-02-21T06:16:39;8.80;99.90
14531;DHT22;7352;50.866;4.366;2023-02-21T06:19:08;9.00;99.90
14531;DHT22;7352;50.866;4.366;2023-02-21T06:21:36;9.00;99.90
14531;DHT22;7352;50.866;4.366;2023-02-21T06:24:07;9.00;99.90
14531;DHT22;7352;50.866;4.366;2023-02-21T06:26:36;8.90;99.90
14531;DHT22;7352;50.866;4.366;2023-02-21T06:29:06;8.90;99.90
14531;DHT22;7352;50.866;4.366;2023-02-21T06:31:36;8.80;99.90
14531;DHT22;7352;50.866;4.366;2023-02-21T06:34:04;8.90;99.90
14531;DHT22;7352;50.866;4.366;2023-02-21T06:36:35;8.80;99.90
14531;DHT22;7352;50.866;4.366;2023-02-21T06:39:03;8.80;99.90
14531;DHT22;7352;50.866;4.366;2023-02-21T06:41:35;8.80;99.90
14531;DHT22;7352;50.866;4.366;2023-02-21T06:44:02;8.70;99.90
14531;DHT22;7352;50.866;4.366;2023-02-21T06:46:31;8.70;99.90
14531;DHT22;7352;50.866;4.366;2023-02-21T06:49:01;8.80;99.90
14531;DHT22;7352;50.866;4.366;2023-02-21T06:56:32;8.90;99.90
14531;DHT22;7352;50.866;4.366;2023-02-21T06:58:59;8.70;99.90
14531;DHT22;7352;50.866;4.366;2023-02-21T07:01:28;8.70;99.90
14531;DHT22;7352;50.866;4.366;2023-02-21T07:04:01;8.80;99.90
14531;DHT22;7352;50.866;4.366;2023-02-21T07:06:28;8.90;99.90
14531;DHT22;7352;50.866;4.366;2023-02-21T07:08:57;9.00;99.90
14531;DHT22;7352;50.866;4.366;2023-02-21T07:11:29;9.10;99.90
14531;DHT22;7352;50.866;4.366;2023-02-21T07:13:57;9.10;99.90
14531;DHT22;7352;50.866;4.366;2023-02-21T07:16:26;9.10;99.90
14531;DHT22;7352;50.866;4.366;2023-02-21T07:18:57;9.00;99.90
14531;DHT22;7352;50.866;4.366;2023-02-21T07:21:29;8.90;99.90
14531;DHT22;7352;50.866;4.366;2023-02-21T07:23:56;9.10;99.90
14531;DHT22;7352;50.866;4.366;2023-02-21T07:26:24;9.10;99.90
14531;DHT22;7352;50.866;4.366;2023-02-21T07:28:53;8.90;99.90
14531;DHT22;7352;50.866;4.366;2023-02-21T07:31:20;9.00;99.90
14531;DHT22;7352;50.866;4.366;2023-02-21T07:33:49;9.20;99.90
14531;DHT22;7352;50.866;4.366;2023-02-21T07:36:17;9.30;99.90
14531;DHT22;7352;50.866;4.366;2023-02-21T07:38:45;9.10;99.90
14531;DHT22;7352;50.866;4.366;2023-02-21T07:41:13;9.20;99.90
14531;DHT22;7352;50.866;4.366;2023-02-21T07:43:41;9.10;99.90
14531;DHT22;7352;50.866;4.366;2023-02-21T07:46:09;9.10;99.90
14531;DHT22;7352;50.866;4.366;2023-02-21T07:48:37;9.10;99.90
14531;DHT22;7352;50.866;4.366;2023-02-21T07:51:06;9.20;99.90
14531;DHT22;7352;50.866;4.366;2023-02-21T07:53:34;9.10;99.90
14531;DHT22;7352;50.866;4.366;2023-02-21T07:56:03;9.00;99.90
14531;DHT22;7352;50.866;4.366;2023-02-21T07:58:30;9.10;99.90
14531;DHT22;7352;50.866;4.366;2023-02-21T08:01:02;9.30;99.90
14531;DHT22;7352;50.866;4.366;2023-02-21T08:03:30;9.20;99.90
14531;DHT22;7352;50.866;4.366;2023-02-21T08:05:58;9.20;99.90
14531;DHT22;7352;50.866;4.366;2023-02-21T08:08:26;9.30;99.90
14531;DHT22;7352;50.866;4.366;2023-02-21T08:10:53;9.30;99.90
14531;DHT22;7352;50.866;4.366;2023-02-21T08:13:22;9.30;99.90
14531;DHT22;7352;50.866;4.366;2023-02-21T08:15:49;9.30;99.90
14531;DHT22;7352;50.866;4.366;2023-02-21T08:18:18;9.50;99.90
14531;DHT22;7352;50.866;4.366;2023-02-21T08:20:48;9.40;99.90
14531;DHT22;7352;50.866;4.366;2023-02-21T08:23:15;9.50;99.90
14531;DHT22;7352;50.866;4.366;2023-02-21T08:25:44;9.50;99.90
14531;DHT22;7352;50.866;4.366;2023-02-21T08:28:11;9.50;99.90
14531;DHT22;7352;50.866;4.366;2023-02-21T08:30:40;9.50;99.90
14531;DHT22;7352;50.866;4.366;2023-02-21T08:33:07;9.60;99.90
14531;DHT22;7352;50.866;4.366;2023-02-21T08:35:34;9.60;99.90
14531;DHT22;7352;50.866;4.366;2023-02-21T08:38:03;9.50;99.90
14531;DHT22;7352;50.866;4.366;2023-02-21T08:40:31;9.60;99.90
14531;DHT22;7352;50.866;4.366;2023-02-21T08:42:59;9.60;99.90
14531;DHT22;7352;50.866;4.366;2023-02-21T08:45:28;9.60;99.90
14531;DHT22;7352;50.866;4.366;2023-02-21T08:47:59;9.50;99.90
14531;DHT22;7352;50.866;4.366;2023-02-21T08:50:29;9.60;99.90
14531;DHT22;7352;50.866;4.366;2023-02-21T08:52:56;9.70;99.90
14531;DHT22;7352;50.866;4.366;2023-02-21T08:55:24;9.60;99.90
14531;DHT22;7352;50.866;4.366;2023-02-21T08:57:55;9.60;99.90
14531;DHT22;7352;50.866;4.366;2023-02-21T09:00:23;9.60;99.90
14531;DHT22;7352;50.866;4.366;2023-02-21T09:02:53;9.60;99.90
14531;DHT22;7352;50.866;4.366;2023-02-21T09:05:23;9.60;99.90
14531;DHT22;7352;50.866;4.366;2023-02-21T09:07:53;9.60;99.90
14531;DHT22;7352;50.866;4.366;2023-02-21T09:10:25;9.70;99.90
14531;DHT22;7352;50.866;4.366;2023-02-21T09:12:52;9.60;99.90
14531;DHT22;7352;50.866;4.366;2023-02-21T09:15:20;9.50;99.90
14531;DHT22;7352;50.866;4.366;2023-02-21T09:17:47;9.40;99.90
14531;DHT22;7352;50.866;4.366;2023-02-21T09:20:17;9.40;99.90
14531;DHT22;7352;50.866;4.366;2023-02-21T09:22:47;9.70;99.90
14531;DHT22;7352;50.866;4.366;2023-02-21T09:25:18;9.70;99.90
14531;DHT22;7352;50.866;4.366;2023-02-21T09:27:47;9.70;99.90
14531;DHT22;7352;50.866;4.366;2023-02-21T09:30:16;9.70;99.90
14531;DHT22;7352;50.866;4.366;2023-02-21T09:32:43;9.80;99.90
14531;DHT22;7352;50.866;4.366;2023-02-21T09:35:12;9.80;99.90
14531;DHT22;7352;50.866;4.366;2023-02-21T09:37:40;9.80;99.90
14531;DHT22;7352;50.866;4.366;2023-02-21T09:40:17;9.70;99.90
14531;DHT22;7352;50.866;4.366;2023-02-21T09:42:49;9.80;99.90
14531;DHT22;7352;50.866;4.366;2023-02-21T09:45:17;9.90;99.90
14531;DHT22;7352;50.866;4.366;2023-02-21T09:47:53;10.00;99.90
14531;DHT22;7352;50.866;4.366;2023-02-21T09:50:24;10.10;99.90
14531;DHT22;7352;50.866;4.366;2023-02-21T09:52:56;10.10;99.90
14531;DHT22;7352;50.866;4.366;2023-02-21T09:55:29;9.90;99.90
14531;DHT22;7352;50.866;4.366;2023-02-21T09:57:57;10.00;99.90
14531;DHT22;7352;50.866;4.366;2023-02-21T10:00:35;10.10;99.90
14531;DHT22;7352;50.866;4.366;2023-02-21T10:03:21;10.10;99.90
14531;DHT22;7352;50.866;4.366;2023-02-21T10:06:01;10.30;99.90
14531;DHT22;7352;50.866;4.366;2023-02-21T10:08:35;10.20;99.90
14531;DHT22;7352;50.866;4.366;2023-02-21T10:11:21;10.20;99.90
14531;DHT22;7352;50.866;4.366;2023-02-21T10:13:58;10.20;99.90
14531;DHT22;7352;50.866;4.366;2023-02-21T10:16:32;10.20;99.90
14531;DHT22;7352;50.866;4.366;2023-02-21T10:19:06;10.10;99.90
14531;DHT22;7352;50.866;4.366;2023-02-21T10:21:41;10.00;99.90
14531;DHT22;7352;50.866;4.366;2023-02-21T10:24:12;9.90;99.90
14531;DHT22;7352;50.866;4.366;2023-02-21T10:26:47;9.80;99.90
14531;DHT22;7352;50.866;4.366;2023-02-21T10:29:21;9.90;99.90
14531;DHT22;7352;50.866;4.366;2023-02-21T10:31:55;10.00;99.90
14531;DHT22;7352;50.866;4.366;2023-02-21T10:34:32;10.00;99.90
14531;DHT22;7352;50.866;4.366;2023-02-21T10:37:09;9.80;99.90
14531;DHT22;7352;50.866;4.366;2023-02-21T10:39:51;9.60;99.90
14531;DHT22;7352;50.866;4.366;2023-02-21T10:42:27;9.70;99.90
14531;DHT22;7352;50.866;4.366;2023-02-21T10:44:58;9.80;99.90
14531;DHT22;7352;50.866;4.366;2023-02-21T10:47:38;9.70;99.90
14531;DHT22;7352;50.866;4.366;2023-02-21T10:50:11;9.90;99.90
14531;DHT22;7352;50.866;4.366;2023-02-21T10:52:46;10.10;99.90
14531;DHT22;7352;50.866;4.366;2023-02-21T10:55:18;10.20;99.90
14531;DHT22;7352;50.866;4.366;2023-02-21T10:57:54;10.30;99.90
14531;DHT22;7352;50.866;4.366;2023-02-21T11:00:27;10.20;99.90
14531;DHT22;7352;50.866;4.366;2023-02-21T11:02:56;10.00;99.90
14531;DHT22;7352;50.866;4.366;2023-02-21T11:05:28;10.20;99.90
14531;DHT22;7352;50.866;4.366;2023-02-21T11:07:58;10.20;99.90
14531;DHT22;7352;50.866;4.366;2023-02-21T11:10:30;10.30;99.90
14531;DHT22;7352;50.866;4.366;2023-02-21T11:13:15;10.40;99.90
14531;DHT22;7352;50.866;4.366;2023-02-21T11:15:43;10.30;99.90
14531;DHT22;7352;50.866;4.366;2023-02-21T11:18:18;10.20;99.90
14531;DHT22;7352;50.866;4.366;2023-02-21T11:20:48;10.10;99.90
14531;DHT22;7352;50.866;4.366;2023-02-21T11:23:23;10.00;99.90
14531;DHT22;7352;50.866;4.366;2023-02-21T11:25:57;10.10;99.90
14531;DHT22;7352;50.866;4.366;2023-02-21T11:28:27;10.10;99.90
14531;DHT22;7352;50.866;4.366;2023-02-21T11:31:06;10.30;99.90
14531;DHT22;7352;50.866;4.366;2023-02-21T11:33:36;10.30;99.90
14531;DHT22;7352;50.866;4.366;2023-02-21T11:36:13;10.40;99.90
14531;DHT22;7352;50.866;4.366;2023-02-21T11:38:41;10.30;99.90
14531;DHT22;7352;50.866;4.366;2023-02-21T11:41:20;10.40;99.90
14531;DHT22;7352;50.866;4.366;2023-02-21T11:43:49;10.40;99.90
14531;DHT22;7352;50.866;4.366;2023-02-21T11:46:23;10.50;99.90
14531;DHT22;7352;50.866;4.366;2023-02-21T11:49:00;10.40;99.90
14531;DHT22;7352;50.866;4.366;2023-02-21T11:51:34;10.40;99.90
14531;DHT22;7352;50.866;4.366;2023-02-21T11:54:03;10.50;99.90
14531;DHT22;7352;50.866;4.366;2023-02-21T11:56:45;10.70;99.90
14531;DHT22;7352;50.866;4.366;2023-02-21T11:59:26;10.50;99.90
14531;DHT22;7352;50.866;4.366;2023-02-21T12:04:55;10.30;99.90
14531;DHT22;7352;50.866;4.366;2023-02-21T12:07:32;10.30;99.90
14531;DHT22;7352;50.866;4.366;2023-02-21T12:10:18;10.40;99.90
14531;DHT22;7352;50.866;4.366;2023-02-21T12:12:55;10.40;99.90
14531;DHT22;7352;50.866;4.366;2023-02-21T12:15:32;10.40;99.90
14531;DHT22;7352;50.866;4.366;2023-02-21T12:18:14;10.40;99.90
14531;DHT22;7352;50.866;4.366;2023-02-21T12:21:09;10.50;99.90
14531;DHT22;7352;50.866;4.366;2023-02-21T12:23:45;10.70;99.90
14531;DHT22;7352;50.866;4.366;2023-02-21T12:26:26;10.60;99.90
14531;DHT22;7352;50.866;4.366;2023-02-21T12:29:06;10.80;99.90
14531;DHT22;7352;50.866;4.366;2023-02-21T12:31:47;10.90;99.90
14531;DHT22;7352;50.866;4.366;2023-02-21T12:34:27;11.00;99.90
14531;DHT22;7352;50.866;4.366;2023-02-21T12:37:12;11.00;99.90
14531;DHT22;7352;50.866;4.366;2023-02-21T12:39:54;11.00;99.90
14531;DHT22;7352;50.866;4.366;2023-02-21T12:42:39;10.90;99.90
14531;DHT22;7352;50.866;4.366;2023-02-21T12:45:25;10.90;99.90
14531;DHT22;7352;50.866;4.366;2023-02-21T12:48:04;11.00;99.90
14531;DHT22;7352;50.866;4.366;2023-02-21T12:50:36;10.80;99.90
14531;DHT22;7352;50.866;4.366;2023-02-21T12:53:09;10.80;99.90
14531;DHT22;7352;50.866;4.366;2023-02-21T12:55:41;10.70;99.90
14531;DHT22;7352;50.866;4.366;2023-02-21T12:58:16;10.70;99.90
14531;DHT22;7352;50.866;4.366;2023-02-21T13:00:55;10.70;99.90
14531;DHT22;7352;50.866;4.366;2023-02-21T13:03:44;10.90;99.90
14531;DHT22;7352;50.866;4.366;2023-02-21T13:06:20;10.80;99.90
14531;DHT22;7352;50.866;4.366;2023-02-21T13:09:14;10.80;99.90
14531;DHT22;7352;50.866;4.366;2023-02-21T13:11:50;11.00;99.90
14531;DHT22;7352;50.866;4.366;2023-02-21T13:14:25;11.10;99.90
14531;DHT22;7352;50.866;4.366;2023-02-21T13:16:54;11.10;99.90
14531;DHT22;7352;50.866;4.366;2023-02-21T13:19:24;11.00;99.90
14531;DHT22;7352;50.866;4.366;2023-02-21T13:24:53;11.20;99.90
14531;DHT22;7352;50.866;4.366;2023-02-21T13:27:47;11.30;99.90
14531;DHT22;7352;50.866;4.366;2023-02-21T13:30:21;11.30;99.90
14531;DHT22;7352;50.866;4.366;2023-02-21T13:32:52;11.20;99.90
14531;DHT22;7352;50.866;4.366;2023-02-21T13:35:29;11.30;99.90
14531;DHT22;7352;50.866;4.366;2023-02-21T13:37:59;11.10;99.90
14531;DHT22;7352;50.866;4.366;2023-02-21T13:40:34;11.20;99.90
14531;DHT22;7352;50.866;4.366;2023-02-21T13:43:05;11.30;99.90
14531;DHT22;7352;50.866;4.366;2023-02-21T13:45:36;11.30;99.90
14531;DHT22;7352;50.866;4.366;2023-02-21T13:48:18;11.10;99.90
14531;DHT22;7352;50.866;4.366;2023-02-21T13:50:50;11.00;99.90
14531;DHT22;7352;50.866;4.366;2023-02-21T13:53:19;11.10;99.90
14531;DHT22;7352;50.866;4.366;2023-02-21T13:56:12;11.30;99.90
14531;DHT22;7352;50.866;4.366;2023-02-21T13:58:42;11.40;99.90
14531;DHT22;7352;50.866;4.366;2023-02-21T14:07:44;11.50;99.90
14531;DHT22;7352;50.866;4.366;2023-02-21T14:10:22;11.30;99.90
14531;DHT22;7352;50.866;4.366;2023-02-21T14:12:54;11.20;99.90
14531;DHT22;7352;50.866;4.366;2023-02-21T14:15:21;11.10;99.90
14531;DHT22;7352;50.866;4.366;2023-02-21T14:17:51;11.20;99.90
14531;DHT22;7352;50.866;4.366;2023-02-21T14:20:21;11.20;99.90
14531;DHT22;7352;50.866;4.366;2023-02-21T14:22:57;11.10;99.90
14531;DHT22;7352;50.866;4.366;2023-02-21T14:25:25;11.00;99.90
14531;DHT22;7352;50.866;4.366;2023-02-21T14:27:53;11.10;99.90
14531;DHT22;7352;50.866;4.366;2023-02-21T14:30:27;11.30;99.90
14531;DHT22;7352;50.866;4.366;2023-02-21T14:33:07;11.60;99.90
14531;DHT22;7352;50.866;4.366;2023-02-21T14:35:45;11.50;99.90
14531;DHT22;7352;50.866;4.366;2023-02-21T14:38:20;11.60;99.90
14531;DHT22;7352;50.866;4.366;2023-02-21T14:40:59;11.50;99.90
14531;DHT22;7352;50.866;4.366;2023-02-21T14:43:39;11.50;99.90
14531;DHT22;7352;50.866;4.366;2023-02-21T14:46:33;11.50;99.90
14531;DHT22;7352;50.866;4.366;2023-02-21T14:49:33;11.30;99.90
14531;DHT22;7352;50.866;4.366;2023-02-21T14:52:27;11.30;99.90
14531;DHT22;7352;50.866;4.366;2023-02-21T14:55:48;11.60;99.90
14531;DHT22;7352;50.866;4.366;2023-02-21T14:59:00;11.60;99.90
14531;DHT22;7352;50.866;4.366;2023-02-21T15:04:36;11.30;99.90
14531;DHT22;7352;50.866;4.366;2023-02-21T15:07:14;11.30;99.90
14531;DHT22;7352;50.866;4.366;2023-02-21T15:09:44;11.10;99.90
14531;DHT22;7352;50.866;4.366;2023-02-21T15:12:16;11.40;99.90
14531;DHT22;7352;50.866;4.366;2023-02-21T15:14:48;11.40;99.90
14531;DHT22;7352;50.866;4.366;2023-02-21T15:17:19;11.30;99.90
14531;DHT22;7352;50.866;4.366;2023-02-21T15:20:01;11.40;99.90
14531;DHT22;7352;50.866;4.366;2023-02-21T15:22:31;11.40;99.90
14531;DHT22;7352;50.866;4.366;2023-02-21T15:25:13;11.40;99.90
14531;DHT22;7352;50.866;4.366;2023-02-21T15:28:01;11.50;99.90
14531;DHT22;7352;50.866;4.366;2023-02-21T15:30:33;11.70;99.90
14531;DHT22;7352;50.866;4.366;2023-02-21T15:33:15;11.60;99.90
14531;DHT22;7352;50.866;4.366;2023-02-21T15:35:56;11.60;99.90
14531;DHT22;7352;50.866;4.366;2023-02-21T15:38:29;11.60;99.90
14531;DHT22;7352;50.866;4.366;2023-02-21T15:41:03;11.60;99.90
14531;DHT22;7352;50.866;4.366;2023-02-21T15:43:43;11.60;99.90
14531;DHT22;7352;50.866;4.366;2023-02-21T15:46:16;11.50;99.90
14531;DHT22;7352;50.866;4.366;2023-02-21T15:48:46;11.40;99.90
14531;DHT22;7352;50.866;4.366;2023-02-21T15:51:19;11.40;99.90
14531;DHT22;7352;50.866;4.366;2023-02-21T15:54:23;11.40;99.90
14531;DHT22;7352;50.866;4.366;2023-02-21T15:57:01;11.20;99.90
14531;DHT22;7352;50.866;4.366;2023-02-21T15:59:34;11.20;99.90
14531;DHT22;7352;50.866;4.366;2023-02-21T16:02:16;11.30;99.90
14531;DHT22;7352;50.866;4.366;2023-02-21T16:04:49;11.40;99.90
14531;DHT22;7352;50.866;4.366;2023-02-21T16:07:27;11.50;99.90
14531;DHT22;7352;50.866;4.366;2023-02-21T16:10:00;11.30;99.90
14531;DHT22;7352;50.866;4.366;2023-02-21T16:12:41;11.40;99.90
14531;DHT22;7352;50.866;4.366;2023-02-21T16:15:24;11.60;99.90
14531;DHT22;7352;50.866;4.366;2023-02-21T16:18:05;11.50;99.90
14531;DHT22;7352;50.866;4.366;2023-02-21T16:20:36;11.50;99.90
14531;DHT22;7352;50.866;4.366;2023-02-21T16:23:22;11.50;99.90
14531;DHT22;7352;50.866;4.366;2023-02-21T16:25:58;11.50;99.90
14531;DHT22;7352;50.866;4.366;2023-02-21T16:28:26;11.30;99.90
14531;DHT22;7352;50.866;4.366;2023-02-21T16:30:55;11.30;99.90
14531;DHT22;7352;50.866;4.366;2023-02-21T16:33:25;11.20;99.90
14531;DHT22;7352;50.866;4.366;2023-02-21T16:35:53;11.10;99.90
14531;DHT22;7352;50.866;4.366;2023-02-21T16:38:22;11.10;99.90
14531;DHT22;7352;50.866;4.366;2023-02-21T16:40:49;11.20;99.90
14531;DHT22;7352;50.866;4.366;2023-02-21T16:43:18;11.30;99.90
14531;DHT22;7352;50.866;4.366;2023-02-21T16:45:46;11.20;99.90
14531;DHT22;7352;50.866;4.366;2023-02-21T16:48:20;11.10;99.90
14531;DHT22;7352;50.866;4.366;2023-02-21T16:50:50;10.90;99.90
14531;DHT22;7352;50.866;4.366;2023-02-21T16:53:18;11.00;99.90
14531;DHT22;7352;50.866;4.366;2023-02-21T16:55:45;10.70;99.90
14531;DHT22;7352;50.866;4.366;2023-02-21T16:58:20;10.70;99.90
14531;DHT22;7352;50.866;4.366;2023-02-21T17:00:50;10.50;99.90
14531;DHT22;7352;50.866;4.366;2023-02-21T17:03:20;10.60;99.90
14531;DHT22;7352;50.866;4.366;2023-02-21T17:05:49;10.60;99.90
14531;DHT22;7352;50.866;4.366;2023-02-21T17:08:33;10.40;99.90
14531;DHT22;7352;50.866;4.366;2023-02-21T17:11:16;10.20;99.90
14531;DHT22;7352;50.866;4.366;2023-02-21T17:13:43;10.20;99.90
14531;DHT22;7352;50.866;4.366;2023-02-21T17:16:23;10.10;99.90
14531;DHT22;7352;50.866;4.366;2023-02-21T17:18:53;10.30;99.90